createdAt,value
2018-03-16T00:00:08.419Z,992.79
2018-03-16T00:02:01.698Z,992.76
2018-03-16T00:03:01.608Z,992.79
2018-03-16T00:04:54.903Z,992.78
2018-03-16T00:05:54.795Z,992.77
2018-03-16T00:07:48.073Z,992.80
2018-03-16T00:08:47.999Z,992.83
2018-03-16T00:10:41.329Z,992.78
2018-03-16T00:11:41.232Z,992.79
2018-03-16T00:13:34.601Z,992.81
2018-03-16T00:14:34.417Z,992.79
2018-03-16T00:16:27.686Z,992.74
2018-03-16T00:17:27.592Z,992.71
2018-03-16T00:19:20.851Z,992.76
2018-03-16T00:20:20.777Z,992.75
2018-03-16T00:22:14.164Z,992.77
2018-03-16T00:23:13.962Z,992.81
2018-03-16T00:25:07.219Z,992.80
2018-03-16T00:26:07.148Z,992.83
2018-03-16T00:28:00.533Z,992.81
2018-03-16T00:29:00.333Z,992.86
2018-03-16T00:30:53.609Z,992.89
2018-03-16T00:31:53.518Z,992.90
2018-03-16T00:33:46.773Z,992.88
2018-03-16T00:34:46.700Z,992.94
2018-03-16T00:36:39.968Z,992.95
2018-03-16T00:37:39.876Z,992.98
2018-03-16T00:39:33.133Z,993.02
2018-03-16T00:40:33.060Z,992.95
2018-03-16T00:42:26.337Z,993.04
2018-03-16T00:43:26.246Z,993.11
2018-03-16T00:45:19.616Z,993.09
2018-03-16T00:46:19.431Z,993.06
2018-03-16T00:48:12.706Z,993.10
2018-03-16T00:49:12.616Z,993.08
2018-03-16T00:51:05.874Z,993.02
2018-03-16T00:52:05.802Z,993.06
2018-03-16T00:53:59.082Z,993.06
2018-03-16T00:54:58.987Z,993.06
2018-03-16T00:56:52.272Z,993.07
2018-03-16T00:57:52.162Z,993.03
2018-03-16T00:59:45.419Z,993.07
2018-03-16T01:00:45.348Z,993.09
2018-03-16T01:02:38.623Z,993.13
2018-03-16T01:03:38.531Z,993.09
2018-03-16T01:05:31.899Z,993.13
2018-03-16T01:06:31.717Z,993.15
2018-03-16T01:08:24.994Z,993.10
2018-03-16T01:09:24.901Z,993.15
2018-03-16T01:11:18.157Z,993.15
2018-03-16T01:12:18.086Z,993.22
2018-03-16T01:14:11.473Z,993.17
2018-03-16T01:15:11.272Z,993.13
2018-03-16T01:17:04.638Z,993.12
2018-03-16T01:18:04.449Z,993.11
2018-03-16T01:19:57.832Z,993.13
2018-03-16T01:20:57.632Z,993.08
2018-03-16T01:22:50.924Z,993.05
2018-03-16T01:23:50.817Z,993.10
2018-03-16T01:25:44.187Z,993.05
2018-03-16T01:26:44.001Z,993.07
2018-03-16T01:28:37.321Z,993.07
2018-03-16T01:29:37.231Z,993.02
2018-03-16T01:31:30.597Z,993.02
2018-03-16T01:32:30.418Z,993.01
2018-03-16T01:34:23.690Z,993.01
2018-03-16T01:35:23.599Z,992.99
2018-03-16T01:37:16.848Z,993.04
2018-03-16T01:38:16.777Z,993.02
2018-03-16T01:40:10.053Z,993.05
2018-03-16T01:41:09.964Z,993.03
2018-03-16T01:43:03.219Z,993.02
2018-03-16T01:44:03.147Z,993.00
2018-03-16T01:45:56.535Z,992.98
2018-03-16T01:46:56.334Z,993.00
2018-03-16T01:48:49.589Z,992.95
2018-03-16T01:49:49.516Z,992.93
2018-03-16T01:51:42.792Z,992.98
2018-03-16T01:52:42.701Z,992.97
2018-03-16T01:54:35.994Z,992.96
2018-03-16T01:55:35.885Z,993.04
2018-03-16T01:57:29.255Z,993.03
2018-03-16T01:58:29.072Z,993.09
2018-03-16T02:00:22.461Z,993.03
2018-03-16T02:01:22.256Z,993.10
2018-03-16T02:03:15.514Z,993.09
2018-03-16T02:04:15.442Z,993.10
2018-03-16T02:06:08.719Z,993.17
2018-03-16T02:07:08.629Z,993.19
2018-03-16T02:09:01.889Z,993.14
2018-03-16T02:10:01.812Z,993.16
2018-03-16T02:11:55.088Z,993.17
2018-03-16T02:12:55.001Z,993.15
2018-03-16T02:14:48.255Z,993.20
2018-03-16T02:15:48.186Z,993.18
2018-03-16T02:17:41.570Z,993.21
2018-03-16T02:18:41.369Z,993.20
2018-03-16T02:20:34.643Z,993.18
2018-03-16T02:21:34.553Z,993.14
2018-03-16T02:23:27.808Z,993.11
2018-03-16T02:24:27.737Z,993.09
2018-03-16T02:26:21.015Z,993.10
2018-03-16T02:27:20.922Z,993.10
2018-03-16T02:29:14.178Z,993.09
2018-03-16T02:30:14.109Z,993.10
2018-03-16T02:32:07.381Z,993.10
2018-03-16T02:33:07.291Z,993.10
2018-03-16T02:35:00.658Z,993.14
2018-03-16T02:36:00.476Z,993.12
2018-03-16T02:37:53.861Z,993.15
2018-03-16T02:38:53.661Z,993.17
2018-03-16T02:40:46.919Z,993.16
2018-03-16T02:41:46.848Z,993.18
2018-03-16T02:43:40.235Z,993.18
2018-03-16T02:44:40.030Z,993.14
2018-03-16T02:46:33.279Z,993.13
2018-03-16T02:47:33.206Z,993.16
2018-03-16T02:49:26.596Z,993.13
2018-03-16T02:50:26.389Z,993.19
2018-03-16T02:52:19.776Z,993.11
2018-03-16T02:53:19.574Z,993.06
2018-03-16T02:55:12.832Z,993.09
2018-03-16T02:56:12.763Z,993.11
2018-03-16T02:58:06.036Z,993.12
2018-03-16T02:59:05.943Z,993.11
2018-03-16T03:00:59.311Z,993.14
2018-03-16T03:01:59.128Z,993.16
2018-03-16T03:03:52.402Z,993.18
2018-03-16T03:04:52.312Z,993.18
2018-03-16T03:06:45.603Z,993.15
2018-03-16T03:07:45.489Z,993.12
2018-03-16T03:09:38.762Z,993.16
2018-03-16T03:10:38.672Z,993.25
2018-03-16T03:12:31.957Z,993.15
2018-03-16T03:13:31.857Z,993.21
2018-03-16T03:15:25.116Z,993.15
2018-03-16T03:16:25.041Z,993.21
2018-03-16T03:18:18.317Z,993.20
2018-03-16T03:19:18.225Z,993.23
2018-03-16T03:21:11.597Z,993.28
2018-03-16T03:22:11.408Z,993.21
2018-03-16T03:24:04.685Z,993.24
2018-03-16T03:25:04.593Z,993.21
2018-03-16T03:26:57.845Z,993.24
2018-03-16T03:27:57.773Z,993.28
2018-03-16T03:29:51.050Z,993.23
2018-03-16T03:30:50.960Z,993.25
2018-03-16T03:32:44.359Z,993.35
2018-03-16T03:33:44.144Z,993.39
2018-03-16T03:35:37.400Z,993.34
2018-03-16T03:36:37.328Z,993.35
2018-03-16T03:38:30.601Z,993.42
2018-03-16T03:39:30.512Z,993.45
2018-03-16T03:41:23.881Z,993.48
2018-03-16T03:42:23.697Z,993.47
2018-03-16T03:44:17.584Z,993.45
2018-03-16T03:45:16.882Z,993.54
2018-03-16T03:47:10.128Z,993.52
2018-03-16T03:48:10.057Z,993.47
2018-03-16T03:50:03.333Z,993.50
2018-03-16T03:51:03.241Z,993.53
2018-03-16T03:52:56.608Z,993.53
2018-03-16T03:53:56.423Z,993.51
2018-03-16T03:55:49.699Z,993.52
2018-03-16T03:56:49.608Z,993.53
2018-03-16T03:58:42.904Z,993.55
2018-03-16T03:59:42.791Z,993.53
2018-03-16T04:01:36.047Z,993.54
2018-03-16T04:02:35.975Z,993.52
2018-03-16T04:04:29.361Z,993.60
2018-03-16T04:05:29.227Z,993.56
2018-03-16T04:07:22.476Z,993.61
2018-03-16T04:08:22.404Z,993.62
2018-03-16T04:10:15.679Z,993.67
2018-03-16T04:11:15.587Z,993.67
2018-03-16T04:13:08.842Z,993.63
2018-03-16T04:14:08.770Z,993.64
2018-03-16T04:16:02.045Z,993.68
2018-03-16T04:17:01.955Z,993.69
2018-03-16T04:18:55.323Z,993.63
2018-03-16T04:19:55.137Z,993.65
2018-03-16T04:21:48.414Z,993.68
2018-03-16T04:22:48.322Z,993.76
2018-03-16T04:24:41.598Z,993.74
2018-03-16T04:25:41.504Z,993.75
2018-03-16T04:27:34.872Z,993.77
2018-03-16T04:28:34.686Z,993.80
2018-03-16T04:30:28.073Z,993.82
2018-03-16T04:31:27.869Z,993.86
2018-03-16T04:33:21.239Z,993.80
2018-03-16T04:34:21.053Z,993.87
2018-03-16T04:36:14.437Z,993.90
2018-03-16T04:37:14.236Z,993.87
2018-03-16T04:39:07.605Z,993.90
2018-03-16T04:40:07.417Z,993.89
2018-03-16T04:42:00.802Z,993.82
2018-03-16T04:43:00.601Z,993.87
2018-03-16T04:44:53.856Z,993.91
2018-03-16T04:45:53.783Z,993.89
2018-03-16T04:47:47.169Z,993.87
2018-03-16T04:48:46.966Z,993.94
2018-03-16T04:50:40.352Z,993.92
2018-03-16T04:51:40.150Z,994.00
2018-03-16T04:53:33.520Z,994.00
2018-03-16T04:54:33.332Z,993.96
2018-03-16T04:56:26.717Z,993.99
2018-03-16T04:57:26.516Z,994.02
2018-03-16T04:59:19.771Z,994.01
2018-03-16T05:00:19.698Z,993.99
2018-03-16T05:02:12.970Z,994.04
2018-03-16T05:03:12.892Z,994.05
2018-03-16T05:05:06.135Z,994.01
2018-03-16T05:06:06.063Z,994.07
2018-03-16T05:07:59.335Z,994.05
2018-03-16T05:08:59.242Z,994.06
2018-03-16T05:10:52.611Z,994.06
2018-03-16T05:11:52.426Z,994.06
2018-03-16T05:13:45.700Z,994.04
2018-03-16T05:14:45.609Z,994.12
2018-03-16T05:16:38.883Z,994.05
2018-03-16T05:17:38.791Z,994.12
2018-03-16T05:19:32.047Z,994.12
2018-03-16T05:20:31.974Z,994.12
2018-03-16T05:22:25.318Z,994.16
2018-03-16T05:23:25.228Z,994.16
2018-03-16T05:25:18.483Z,994.20
2018-03-16T05:26:18.411Z,994.14
2018-03-16T05:28:11.688Z,994.22
2018-03-16T05:29:11.593Z,994.21
2018-03-16T05:31:04.960Z,994.29
2018-03-16T05:32:04.776Z,994.30
2018-03-16T05:33:58.161Z,994.30
2018-03-16T05:34:57.957Z,994.33
2018-03-16T05:36:51.324Z,994.27
2018-03-16T05:37:51.130Z,994.29
2018-03-16T05:39:44.518Z,994.38
2018-03-16T05:40:44.336Z,994.40
2018-03-16T05:42:37.701Z,994.43
2018-03-16T05:43:37.493Z,994.45
2018-03-16T05:45:30.748Z,994.44
2018-03-16T05:46:30.675Z,994.48
2018-03-16T05:48:23.947Z,994.47
2018-03-16T05:49:23.855Z,994.46
2018-03-16T05:51:17.222Z,994.43
2018-03-16T05:52:17.037Z,994.47
2018-03-16T05:54:10.310Z,994.53
2018-03-16T05:55:10.218Z,994.49
2018-03-16T05:57:03.466Z,994.55
2018-03-16T05:58:03.392Z,994.60
2018-03-16T05:59:56.666Z,994.58
2018-03-16T06:00:56.595Z,994.67
2018-03-16T06:02:49.942Z,994.68
2018-03-16T06:03:49.755Z,994.70
2018-03-16T06:05:43.031Z,994.68
2018-03-16T06:06:42.937Z,994.61
2018-03-16T06:08:36.228Z,994.67
2018-03-16T06:09:36.119Z,994.67
2018-03-16T06:11:29.540Z,994.66
2018-03-16T06:12:29.303Z,994.74
2018-03-16T06:14:22.575Z,994.73
2018-03-16T06:15:22.488Z,994.75
2018-03-16T06:17:15.850Z,994.75
2018-03-16T06:18:15.657Z,994.80
2018-03-16T06:20:09.041Z,994.81
2018-03-16T06:21:08.838Z,994.83
2018-03-16T06:23:02.094Z,994.79
2018-03-16T06:24:02.020Z,994.84
2018-03-16T06:25:55.319Z,994.83
2018-03-16T06:26:55.231Z,994.84
2018-03-16T06:28:48.485Z,994.90
2018-03-16T06:29:48.410Z,994.85
2018-03-16T06:31:41.702Z,994.92
2018-03-16T06:32:41.610Z,994.94
2018-03-16T06:34:34.884Z,994.96
2018-03-16T06:35:34.793Z,994.96
2018-03-16T06:37:28.161Z,994.92
2018-03-16T06:38:27.975Z,994.96
2018-03-16T06:40:21.321Z,995.04
2018-03-16T06:41:21.229Z,995.01
2018-03-16T06:43:14.510Z,995.07
2018-03-16T06:44:14.420Z,995.06
2018-03-16T06:46:07.804Z,995.10
2018-03-16T06:47:07.602Z,995.10
2018-03-16T06:49:00.858Z,995.11
2018-03-16T06:50:00.782Z,995.13
2018-03-16T06:51:54.082Z,995.18
2018-03-16T06:52:53.966Z,995.15
2018-03-16T06:54:47.334Z,995.17
2018-03-16T06:55:47.147Z,995.18
2018-03-16T06:57:40.534Z,995.22
2018-03-16T06:58:40.329Z,995.24
2018-03-16T07:00:33.715Z,995.20
2018-03-16T07:01:33.514Z,995.21
2018-03-16T07:03:26.882Z,995.30
2018-03-16T07:04:26.697Z,995.36
2018-03-16T07:06:20.081Z,995.35
2018-03-16T07:07:19.879Z,995.34
2018-03-16T07:09:13.141Z,995.45
2018-03-16T07:10:13.065Z,995.44
2018-03-16T07:12:06.455Z,995.45
2018-03-16T07:13:06.249Z,995.44
2018-03-16T07:14:59.504Z,995.49
2018-03-16T07:15:59.430Z,995.45
2018-03-16T07:17:52.703Z,995.51
2018-03-16T07:18:52.614Z,995.55
2018-03-16T07:20:45.886Z,995.55
2018-03-16T07:21:45.789Z,995.54
2018-03-16T07:23:39.163Z,995.58
2018-03-16T07:24:38.979Z,995.59
2018-03-16T07:26:32.244Z,995.62
2018-03-16T07:27:32.150Z,995.63
2018-03-16T07:29:25.519Z,995.63
2018-03-16T07:30:25.323Z,995.62
2018-03-16T07:32:18.589Z,995.62
2018-03-16T07:33:18.495Z,995.68
2018-03-16T07:35:11.795Z,995.63
2018-03-16T07:36:11.669Z,995.68
2018-03-16T07:38:04.936Z,995.75
2018-03-16T07:39:04.841Z,995.72
2018-03-16T07:40:58.209Z,995.74
2018-03-16T07:41:58.013Z,995.73
2018-03-16T07:43:51.321Z,995.81
2018-03-16T07:44:51.229Z,995.68
2018-03-16T07:46:44.493Z,995.73
2018-03-16T07:47:44.402Z,995.83
2018-03-16T07:49:37.648Z,995.80
2018-03-16T07:50:37.576Z,995.77
2018-03-16T07:52:30.837Z,995.79
2018-03-16T07:53:30.748Z,995.78
2018-03-16T07:55:23.995Z,995.83
2018-03-16T07:56:23.920Z,995.82
2018-03-16T07:58:17.184Z,995.80
2018-03-16T07:59:17.089Z,995.84
2018-03-16T08:01:10.461Z,995.89
2018-03-16T08:02:10.262Z,995.88
2018-03-16T08:04:03.531Z,995.95
2018-03-16T08:05:03.439Z,995.94
2018-03-16T08:06:56.679Z,995.97
2018-03-16T08:07:56.603Z,995.99
2018-03-16T08:09:49.989Z,996.03
2018-03-16T08:10:49.794Z,996.05
2018-03-16T08:12:43.058Z,996.08
2018-03-16T08:13:42.967Z,996.10
2018-03-16T08:15:36.214Z,996.19
2018-03-16T08:16:36.143Z,996.10
2018-03-16T08:18:29.407Z,996.16
2018-03-16T08:19:29.317Z,996.18
2018-03-16T08:21:22.564Z,996.18
2018-03-16T08:22:22.489Z,996.19
2018-03-16T08:24:15.766Z,996.22
2018-03-16T08:25:15.671Z,996.22
2018-03-16T08:27:09.534Z,996.27
2018-03-16T08:28:08.962Z,996.33
2018-03-16T08:30:02.440Z,996.29
2018-03-16T08:31:02.102Z,996.33
2018-03-16T08:32:55.472Z,996.27
2018-03-16T08:33:54.954Z,996.36
2018-03-16T08:35:48.219Z,996.33
2018-03-16T08:36:48.130Z,996.39
2018-03-16T08:38:41.375Z,996.34
2018-03-16T08:39:41.300Z,996.39
2018-03-16T08:41:34.566Z,996.38
2018-03-16T08:42:34.474Z,996.42
2018-03-16T08:44:27.374Z,996.43
2018-03-16T08:45:27.164Z,996.44
2018-03-16T08:47:20.402Z,996.46
2018-03-16T08:48:20.332Z,996.46
2018-03-16T08:50:13.725Z,996.47
2018-03-16T08:51:13.630Z,996.46
2018-03-16T08:53:06.757Z,996.49
2018-03-16T08:54:06.675Z,996.50
2018-03-16T08:56:00.060Z,996.52
2018-03-16T08:56:59.848Z,996.49
2018-03-16T08:58:53.090Z,996.57
2018-03-16T08:59:53.019Z,996.52
2018-03-16T09:01:46.405Z,996.54
2018-03-16T09:02:46.191Z,996.55
2018-03-16T09:04:39.436Z,996.57
2018-03-16T09:05:39.364Z,996.59
2018-03-16T09:07:32.628Z,996.59
2018-03-16T09:08:32.537Z,996.62
2018-03-16T09:10:25.814Z,996.58
2018-03-16T09:11:25.714Z,996.55
2018-03-16T09:13:18.988Z,996.60
2018-03-16T09:14:18.912Z,996.61
2018-03-16T09:16:12.799Z,996.68
2018-03-16T09:17:12.084Z,996.64
2018-03-16T09:19:05.329Z,996.67
2018-03-16T09:20:05.257Z,996.73
2018-03-16T09:21:58.034Z,996.70
2018-03-16T09:22:57.943Z,996.64
2018-03-16T09:24:51.192Z,996.73
2018-03-16T09:25:51.139Z,996.69
2018-03-16T09:27:44.378Z,996.74
2018-03-16T09:28:44.289Z,996.73
2018-03-16T09:30:37.534Z,996.75
2018-03-16T09:31:37.463Z,996.79
2018-03-16T09:33:30.725Z,996.79
2018-03-16T09:34:30.635Z,996.75
2018-03-16T09:36:24.035Z,996.76
2018-03-16T09:37:23.809Z,996.84
2018-03-16T09:39:17.177Z,996.83
2018-03-16T09:40:16.983Z,996.91
2018-03-16T09:42:10.249Z,996.81
2018-03-16T09:43:10.181Z,996.82
2018-03-16T09:45:03.403Z,996.87
2018-03-16T09:46:03.329Z,996.85
2018-03-16T09:47:57.602Z,996.91
2018-03-16T09:48:57.534Z,996.85
2018-03-16T09:50:50.879Z,996.88
2018-03-16T09:51:50.684Z,996.92
2018-03-16T09:53:43.960Z,996.89
2018-03-16T09:54:43.867Z,996.99
2018-03-16T09:56:37.112Z,996.93
2018-03-16T09:57:37.043Z,996.86
2018-03-16T09:59:30.305Z,996.91
2018-03-16T10:00:30.219Z,996.95
2018-03-16T10:02:23.494Z,996.91
2018-03-16T10:03:23.492Z,996.95
2018-03-16T10:05:16.629Z,997.01
2018-03-16T10:06:16.556Z,996.99
2018-03-16T10:08:09.820Z,996.99
2018-03-16T10:09:09.731Z,996.95
2018-03-16T10:11:03.100Z,997.02
2018-03-16T10:12:02.916Z,996.95
2018-03-16T10:13:56.163Z,997.00
2018-03-16T10:14:56.073Z,997.02
2018-03-16T10:16:49.318Z,997.02
2018-03-16T10:17:49.246Z,997.03
2018-03-16T10:19:42.508Z,997.05
2018-03-16T10:20:42.418Z,997.02
2018-03-16T10:22:35.783Z,997.06
2018-03-16T10:23:35.587Z,997.00
2018-03-16T10:25:28.849Z,997.09
2018-03-16T10:26:28.758Z,997.17
2018-03-16T10:28:22.144Z,997.07
2018-03-16T10:29:21.930Z,997.06
2018-03-16T10:31:15.174Z,997.12
2018-03-16T10:32:15.101Z,997.14
2018-03-16T10:34:07.882Z,997.15
2018-03-16T10:35:07.782Z,997.21
2018-03-16T10:37:01.068Z,997.09
2018-03-16T10:38:00.952Z,997.18
2018-03-16T10:39:54.340Z,997.29
2018-03-16T10:40:54.123Z,997.28
2018-03-16T10:42:47.430Z,997.26
2018-03-16T10:43:47.294Z,997.32
2018-03-16T10:45:40.682Z,997.29
2018-03-16T10:46:40.466Z,997.34
2018-03-16T10:48:33.711Z,997.36
2018-03-16T10:49:33.638Z,997.36
2018-03-16T10:51:26.901Z,997.29
2018-03-16T10:52:26.809Z,997.38
2018-03-16T10:54:20.068Z,997.35
2018-03-16T10:55:19.991Z,997.31
2018-03-16T10:57:13.323Z,997.35
2018-03-16T10:58:13.232Z,997.33
2018-03-16T11:00:06.475Z,997.37
2018-03-16T11:01:06.402Z,997.33
2018-03-16T11:02:59.789Z,997.34
2018-03-16T11:03:59.575Z,997.37
2018-03-16T11:05:52.849Z,997.37
2018-03-16T11:06:52.746Z,997.39
2018-03-16T11:08:46.108Z,997.39
2018-03-16T11:09:45.920Z,997.40
2018-03-16T11:11:39.181Z,997.44
2018-03-16T11:12:39.089Z,997.47
2018-03-16T11:14:32.331Z,997.48
2018-03-16T11:15:32.262Z,997.49
2018-03-16T11:17:25.527Z,997.52
2018-03-16T11:18:25.434Z,997.54
2018-03-16T11:20:18.802Z,997.57
2018-03-16T11:21:18.607Z,997.64
2018-03-16T11:23:11.870Z,997.57
2018-03-16T11:24:11.780Z,997.61
2018-03-16T11:26:05.030Z,997.53
2018-03-16T11:27:04.953Z,997.62
2018-03-16T11:28:58.340Z,997.58
2018-03-16T11:29:58.126Z,997.54
2018-03-16T11:31:51.533Z,997.58
2018-03-16T11:32:51.298Z,997.61
2018-03-16T11:34:44.544Z,997.56
2018-03-16T11:35:44.470Z,997.63
2018-03-16T11:37:37.745Z,997.67
2018-03-16T11:38:37.642Z,997.67
2018-03-16T11:40:30.887Z,997.62
2018-03-16T11:41:30.818Z,997.63
2018-03-16T11:43:24.199Z,997.67
2018-03-16T11:44:23.988Z,997.75
2018-03-16T11:46:17.300Z,997.74
2018-03-16T11:47:17.228Z,997.72
2018-03-16T11:49:10.543Z,997.82
2018-03-16T11:50:10.397Z,997.74
2018-03-16T11:52:03.643Z,997.86
2018-03-16T11:53:03.570Z,997.86
2018-03-16T11:54:56.956Z,997.86
2018-03-16T11:55:56.765Z,997.83
2018-03-16T11:57:50.009Z,997.80
2018-03-16T11:58:49.934Z,997.81
2018-03-16T12:00:43.322Z,997.82
2018-03-16T12:01:43.106Z,997.85
2018-03-16T12:03:36.474Z,997.93
2018-03-16T12:04:36.279Z,997.95
2018-03-16T12:06:29.545Z,997.95
2018-03-16T12:07:29.452Z,997.94
2018-03-16T12:09:22.735Z,997.96
2018-03-16T12:10:22.628Z,998.00
2018-03-16T12:12:15.990Z,998.01
2018-03-16T12:13:15.795Z,998.02
2018-03-16T12:15:09.180Z,997.97
2018-03-16T12:16:08.967Z,998.05
2018-03-16T12:18:02.225Z,998.05
2018-03-16T12:19:02.139Z,997.99
2018-03-16T12:20:55.444Z,998.05
2018-03-16T12:21:55.352Z,998.00
2018-03-16T12:23:48.596Z,998.05
2018-03-16T12:24:48.523Z,998.14
2018-03-16T12:26:41.790Z,998.08
2018-03-16T12:27:41.698Z,998.09
2018-03-16T12:29:34.944Z,998.12
2018-03-16T12:30:34.870Z,998.07
2018-03-16T12:32:28.131Z,998.13
2018-03-16T12:33:28.039Z,998.18
2018-03-16T12:35:21.431Z,998.16
2018-03-16T12:36:21.228Z,998.17
2018-03-16T12:38:14.471Z,998.16
2018-03-16T12:39:14.397Z,998.19
2018-03-16T12:41:07.784Z,998.17
2018-03-16T12:42:07.578Z,998.21
2018-03-16T12:44:00.824Z,998.21
2018-03-16T12:45:00.750Z,998.21
2018-03-16T12:46:54.012Z,998.17
2018-03-16T12:47:53.949Z,998.27
2018-03-16T12:49:47.286Z,998.25
2018-03-16T12:50:47.094Z,998.28
2018-03-16T12:52:40.355Z,998.32
2018-03-16T12:53:40.268Z,998.23
2018-03-16T12:55:33.510Z,998.24
2018-03-16T12:56:33.436Z,998.22
2018-03-16T12:58:26.697Z,998.28
2018-03-16T12:59:26.606Z,998.30
2018-03-16T13:01:19.868Z,998.25
2018-03-16T13:02:19.816Z,998.33
2018-03-16T13:04:13.025Z,998.34
2018-03-16T13:05:12.947Z,998.34
2018-03-16T13:07:06.221Z,998.34
2018-03-16T13:08:06.121Z,998.34
2018-03-16T13:09:59.364Z,998.39
2018-03-16T13:10:59.290Z,998.39
2018-03-16T13:12:52.676Z,998.41
2018-03-16T13:13:52.512Z,998.41
2018-03-16T13:15:45.706Z,998.40
2018-03-16T13:16:45.632Z,998.41
2018-03-16T13:18:38.896Z,998.40
2018-03-16T13:19:38.803Z,998.50
2018-03-16T13:21:32.048Z,998.44
2018-03-16T13:22:31.974Z,998.47
2018-03-16T13:24:25.364Z,998.50
2018-03-16T13:25:25.148Z,998.45
2018-03-16T13:27:18.408Z,998.46
2018-03-16T13:28:18.317Z,998.43
2018-03-16T13:30:11.561Z,998.46
2018-03-16T13:31:11.486Z,998.45
2018-03-16T13:33:04.758Z,998.43
2018-03-16T13:34:04.657Z,998.48
2018-03-16T13:35:57.900Z,998.52
2018-03-16T13:36:57.829Z,998.50
2018-03-16T13:38:51.133Z,998.57
2018-03-16T13:39:51.019Z,998.49
2018-03-16T13:41:44.261Z,998.52
2018-03-16T13:42:44.187Z,998.52
2018-03-16T13:44:37.574Z,998.57
2018-03-16T13:45:37.358Z,998.62
2018-03-16T13:47:30.602Z,998.59
2018-03-16T13:48:30.527Z,998.59
2018-03-16T13:50:23.900Z,998.60
2018-03-16T13:51:23.811Z,998.63
2018-03-16T13:53:17.053Z,998.66
2018-03-16T13:54:16.982Z,998.63
2018-03-16T13:56:10.242Z,998.64
2018-03-16T13:57:10.148Z,998.69
2018-03-16T13:59:03.434Z,998.65
2018-03-16T14:00:03.318Z,998.70
2018-03-16T14:01:56.562Z,998.67
2018-03-16T14:02:56.487Z,998.70
2018-03-16T14:04:49.876Z,998.75
2018-03-16T14:05:49.657Z,998.78
2018-03-16T14:07:42.897Z,998.72
2018-03-16T14:08:42.826Z,998.80
2018-03-16T14:10:36.213Z,998.80
2018-03-16T14:11:35.996Z,998.79
2018-03-16T14:13:29.301Z,998.81
2018-03-16T14:14:29.228Z,998.89
2018-03-16T14:16:22.611Z,998.85
2018-03-16T14:17:22.400Z,998.81
2018-03-16T14:19:15.639Z,998.91
2018-03-16T14:20:15.565Z,998.86
2018-03-16T14:22:08.949Z,998.88
2018-03-16T14:23:08.735Z,998.93
2018-03-16T14:25:01.995Z,998.96
2018-03-16T14:26:01.904Z,998.99
2018-03-16T14:27:55.190Z,998.96
2018-03-16T14:28:55.073Z,998.95
2018-03-16T14:30:48.457Z,998.90
2018-03-16T14:31:48.253Z,998.94
2018-03-16T14:33:41.514Z,998.98
2018-03-16T14:34:41.432Z,998.99
2018-03-16T14:36:34.695Z,998.96
2018-03-16T14:37:34.603Z,999.01
2018-03-16T14:39:27.856Z,999.03
2018-03-16T14:40:27.782Z,999.04
2018-03-16T14:42:21.189Z,999.05
2018-03-16T14:43:21.047Z,999.08
2018-03-16T14:45:14.356Z,999.06
2018-03-16T14:46:14.164Z,999.07
2018-03-16T14:48:07.544Z,999.10
2018-03-16T14:49:07.340Z,999.09
2018-03-16T14:51:00.592Z,999.11
2018-03-16T14:52:00.520Z,999.15
2018-03-16T14:53:53.791Z,999.17
2018-03-16T14:54:53.699Z,999.12
2018-03-16T14:56:46.941Z,999.17
2018-03-16T14:57:46.868Z,999.20
2018-03-16T14:59:40.159Z,999.19
2018-03-16T15:00:40.065Z,999.24
2018-03-16T15:02:33.348Z,999.34
2018-03-16T15:03:33.243Z,999.27
2018-03-16T15:05:26.504Z,999.29
2018-03-16T15:06:26.423Z,999.36
2018-03-16T15:08:19.735Z,999.35
2018-03-16T15:09:19.600Z,999.34
2018-03-16T15:11:12.967Z,999.36
2018-03-16T15:12:12.787Z,999.34
2018-03-16T15:14:06.052Z,999.33
2018-03-16T15:15:05.965Z,999.38
2018-03-16T15:16:59.209Z,999.38
2018-03-16T15:17:59.132Z,999.37
2018-03-16T15:19:52.401Z,999.42
2018-03-16T15:20:52.309Z,999.33
2018-03-16T15:22:45.691Z,999.37
2018-03-16T15:23:45.487Z,999.32
2018-03-16T15:25:38.756Z,999.43
2018-03-16T15:26:38.665Z,999.44
2018-03-16T15:28:32.048Z,999.45
2018-03-16T15:29:31.843Z,999.45
2018-03-16T15:31:25.095Z,999.48
2018-03-16T15:32:25.022Z,999.46
2018-03-16T15:34:18.292Z,999.47
2018-03-16T15:35:18.200Z,999.44
2018-03-16T15:37:11.448Z,999.46
2018-03-16T15:38:11.372Z,999.51
2018-03-16T15:40:04.638Z,999.47
2018-03-16T15:41:04.544Z,999.52
2018-03-16T15:42:57.803Z,999.55
2018-03-16T15:43:57.729Z,999.56
2018-03-16T15:45:51.112Z,999.59
2018-03-16T15:46:50.905Z,999.59
2018-03-16T15:48:44.289Z,999.61
2018-03-16T15:49:44.085Z,999.57
2018-03-16T15:51:37.450Z,999.53
2018-03-16T15:52:37.268Z,999.58
2018-03-16T15:54:30.550Z,999.53
2018-03-16T15:55:30.445Z,999.51
2018-03-16T15:57:23.690Z,999.63
2018-03-16T15:58:23.616Z,999.59
2018-03-16T16:00:16.887Z,999.60
2018-03-16T16:01:16.793Z,999.63
2018-03-16T16:03:10.046Z,999.63
2018-03-16T16:04:09.972Z,999.70
2018-03-16T16:06:03.354Z,999.68
2018-03-16T16:07:03.148Z,999.67
2018-03-16T16:08:56.403Z,999.74
2018-03-16T16:09:56.329Z,999.77
2018-03-16T16:11:49.710Z,999.76
2018-03-16T16:12:49.513Z,999.79
2018-03-16T16:14:42.763Z,999.79
2018-03-16T16:15:42.684Z,999.75
2018-03-16T16:17:35.963Z,999.81
2018-03-16T16:18:35.860Z,999.80
2018-03-16T16:20:29.133Z,999.80
2018-03-16T16:21:29.040Z,999.82
2018-03-16T16:23:22.354Z,999.81
2018-03-16T16:24:22.279Z,999.81
2018-03-16T16:26:15.549Z,999.73
2018-03-16T16:27:15.456Z,999.87
2018-03-16T16:29:08.710Z,999.84
2018-03-16T16:30:08.636Z,999.87
2018-03-16T16:32:02.021Z,999.96
2018-03-16T16:33:01.815Z,999.89
2018-03-16T16:34:55.066Z,999.92
2018-03-16T16:35:54.991Z,999.96
2018-03-16T16:37:48.263Z,999.85
2018-03-16T16:38:48.169Z,999.90
2018-03-16T16:40:41.456Z,999.97
2018-03-16T16:41:41.380Z,999.92
2018-03-16T16:43:34.650Z,999.98
2018-03-16T16:44:34.559Z,999.99
2018-03-16T16:46:27.817Z,999.98
2018-03-16T16:47:27.727Z,999.97
2018-03-16T16:49:20.977Z,1000.06
2018-03-16T16:50:20.904Z,1000.01
2018-03-16T16:52:14.173Z,1000.09
2018-03-16T16:53:14.080Z,1000.10
2018-03-16T16:55:07.461Z,1000.13
2018-03-16T16:56:07.257Z,1000.11
2018-03-16T16:58:00.640Z,1000.13
2018-03-16T16:59:00.434Z,1000.09
2018-03-16T17:00:53.684Z,1000.13
2018-03-16T17:01:53.610Z,1000.22
2018-03-16T17:03:46.881Z,1000.28
2018-03-16T17:04:46.788Z,1000.19
2018-03-16T17:06:40.030Z,1000.31
2018-03-16T17:07:39.956Z,1000.25
2018-03-16T17:09:33.233Z,1000.20
2018-03-16T17:10:33.136Z,1000.27
2018-03-16T17:12:26.392Z,1000.30
2018-03-16T17:13:26.300Z,1000.32
2018-03-16T17:15:19.543Z,1000.33
2018-03-16T17:16:19.468Z,1000.37
2018-03-16T17:18:12.728Z,1000.35
2018-03-16T17:19:12.634Z,1000.41
2018-03-16T17:21:05.876Z,1000.55
2018-03-16T17:22:05.824Z,1000.53
2018-03-16T17:23:59.061Z,1000.54
2018-03-16T17:24:58.969Z,1000.56
2018-03-16T17:26:52.334Z,1000.58
2018-03-16T17:27:52.137Z,1000.60
2018-03-16T17:29:45.521Z,1000.66
2018-03-16T17:30:45.303Z,1000.67
2018-03-16T17:32:38.595Z,1000.70
2018-03-16T17:33:38.483Z,1000.75
2018-03-16T17:35:31.845Z,1000.72
2018-03-16T17:36:31.657Z,1000.72
2018-03-16T17:38:24.930Z,1000.65
2018-03-16T17:39:24.835Z,1000.62
2018-03-16T17:41:18.240Z,1000.65
2018-03-16T17:42:18.010Z,1000.71
2018-03-16T17:44:11.320Z,1000.68
2018-03-16T17:45:11.223Z,1000.70
2018-03-16T17:47:04.468Z,1000.73
2018-03-16T17:48:04.392Z,1000.66
2018-03-16T17:49:57.777Z,1000.79
2018-03-16T17:50:57.568Z,1000.78
2018-03-16T17:52:50.821Z,1000.83
2018-03-16T17:53:50.750Z,1000.93
2018-03-16T17:55:44.015Z,1000.92
2018-03-16T17:56:43.920Z,1000.86